Barbers Point N A S, Hawaii
Current Conditions -  °F | °C
As of 9:53 AM on Friday 19 Dec 2014 (Local Time) from PHJR Reporting Station
Few Clouds Few Clouds  
Wind Chill: 79°   Ceiling: Unl
Heat Index: 81°   Visibility: 10mi
Dew Point: 66°   Wind: 8mph
Humidity: 64%   Direction: 120°ESE
Pressure: 30.14"   Gusts: NA
Location:  21.319°N, 158.0749°W
Report Text: PHJR 191953Z 12007KT 10SM FEW035 26/19 A3014 RMK AO2 SLP211 T02610189
Loading
Personal Weather Stations






























Interactive Weather Map New forecast layout! Learn more

10-Day Weather Forecast

Advertisements
Track Severe Weather on mobile